aviador You're here:

KEPH Decoded Metar

EPHRATA in WA, USA
Report Time2017-04-30 13:53:00
UTC Time2017-04-30 14:55:11
Flight Rules vfr VFR
Wind240° at 05 kt
W.Decomp.*RWY 22: 5.0 kt HW 0.3 kt RCW
RWY 21: 4.9 kt HW 1.2 kt RCW
RWY 29: 2.0 kt HW 4.6 kt LCW
W.Rank240° ranks 16
Current wind is below 240° avg. (8.9)
Visibility9999 m
Phenomena:N/A
Clouds:N/A
Expected CloudBase > 3,200 ft AGL from Temp-Dew spread
CeilingNone
Temp10°C (ISA -3)
Dew Point02°C (58% RH)
AAT6.5°C
QNH1016 hPa
Density Alt958 ft
Elevation1,257 ft
Report Wrong Elevation
Raw Report
METAR KEPH 301353Z AUTO 24005KT 10SM CLR 10/02 A3000 RMK AO2 SLP161
T01000022=

Extra information for KEPH:More info

Metar Taf Metar & Taf Last 4 Metars F.Rules Stats Wind Profile Meteogram Temp Stats Airport Information Weather charts Add Link Nearby VenuesMetar ALERT Operation Metar Decoded Social comments

AIRNAV info for KEPH